sensor_id;sensor_type;location;lat;lon;timestamp;P1;durP1;ratioP1;P2;durP2;ratioP2
69894;SDS011;57172;52.034;5.090;2022-07-01T00:02:04;18.25;;;10.07;;
69894;SDS011;57172;52.034;5.090;2022-07-01T00:04:31;17.73;;;10.32;;
69894;SDS011;57172;52.034;5.090;2022-07-01T00:07:17;20.02;;;11.55;;
69894;SDS011;57172;52.034;5.090;2022-07-01T00:09:44;22.03;;;12.43;;
69894;SDS011;57172;52.034;5.090;2022-07-01T00:12:11;19.52;;;12.75;;
69894;SDS011;57172;52.034;5.090;2022-07-01T00:14:38;21.60;;;12.93;;
69894;SDS011;57172;52.034;5.090;2022-07-01T00:17:05;20.92;;;13.13;;
69894;SDS011;57172;52.034;5.090;2022-07-01T00:19:32;24.20;;;13.15;;
69894;SDS011;57172;52.034;5.090;2022-07-01T00:22:00;22.17;;;13.17;;
69894;SDS011;57172;52.034;5.090;2022-07-01T00:24:27;22.67;;;12.57;;
69894;SDS011;57172;52.034;5.090;2022-07-01T00:26:53;21.13;;;12.55;;
69894;SDS011;57172;52.034;5.090;2022-07-01T00:29:20;26.45;;;14.43;;
69894;SDS011;57172;52.034;5.090;2022-07-01T00:31:47;26.15;;;14.98;;
69894;SDS011;57172;52.034;5.090;2022-07-01T00:34:14;28.37;;;15.73;;
69894;SDS011;57172;52.034;5.090;2022-07-01T00:36:41;26.90;;;16.48;;
69894;SDS011;57172;52.034;5.090;2022-07-01T00:39:08;26.67;;;16.42;;
69894;SDS011;57172;52.034;5.090;2022-07-01T00:41:35;30.00;;;17.65;;
69894;SDS011;57172;52.034;5.090;2022-07-01T00:44:02;28.60;;;17.02;;
69894;SDS011;57172;52.034;5.090;2022-07-01T00:46:29;29.37;;;16.83;;
69894;SDS011;57172;52.034;5.090;2022-07-01T00:48:58;27.25;;;16.60;;
69894;SDS011;57172;52.034;5.090;2022-07-01T00:51:26;31.15;;;17.55;;
69894;SDS011;57172;52.034;5.090;2022-07-01T00:53:55;25.73;;;15.60;;
69894;SDS011;57172;52.034;5.090;2022-07-01T00:56:24;25.92;;;14.05;;
69894;SDS011;57172;52.034;5.090;2022-07-01T00:58:51;29.53;;;17.90;;
69894;SDS011;57172;52.034;5.090;2022-07-01T01:01:18;31.98;;;17.75;;
69894;SDS011;57172;52.034;5.090;2022-07-01T01:03:45;29.58;;;17.45;;
69894;SDS011;57172;52.034;5.090;2022-07-01T01:06:13;28.83;;;17.17;;
69894;SDS011;57172;52.034;5.090;2022-07-01T01:08:40;28.77;;;17.52;;
69894;SDS011;57172;52.034;5.090;2022-07-01T01:11:07;28.07;;;16.20;;
69894;SDS011;57172;52.034;5.090;2022-07-01T01:13:34;29.42;;;16.73;;
69894;SDS011;57172;52.034;5.090;2022-07-01T01:16:01;32.25;;;17.48;;
69894;SDS011;57172;52.034;5.090;2022-07-01T01:18:28;31.65;;;16.58;;
69894;SDS011;57172;52.034;5.090;2022-07-01T01:20:55;31.60;;;17.10;;
69894;SDS011;57172;52.034;5.090;2022-07-01T01:23:22;28.33;;;16.40;;
69894;SDS011;57172;52.034;5.090;2022-07-01T01:25:49;28.92;;;15.25;;
69894;SDS011;57172;52.034;5.090;2022-07-01T01:28:15;28.65;;;16.70;;
69894;SDS011;57172;52.034;5.090;2022-07-01T01:30:42;29.13;;;16.90;;
69894;SDS011;57172;52.034;5.090;2022-07-01T01:33:09;30.08;;;16.92;;
69894;SDS011;57172;52.034;5.090;2022-07-01T01:35:38;34.00;;;17.13;;
69894;SDS011;57172;52.034;5.090;2022-07-01T01:38:05;32.92;;;17.10;;
69894;SDS011;57172;52.034;5.090;2022-07-01T01:40:32;31.60;;;16.83;;
69894;SDS011;57172;52.034;5.090;2022-07-01T01:42:58;26.90;;;14.23;;
69894;SDS011;57172;52.034;5.090;2022-07-01T01:45:25;31.30;;;17.15;;
69894;SDS011;57172;52.034;5.090;2022-07-01T01:47:52;27.87;;;16.47;;
69894;SDS011;57172;52.034;5.090;2022-07-01T01:50:19;27.88;;;14.98;;
69894;SDS011;57172;52.034;5.090;2022-07-01T01:52:47;29.25;;;16.15;;
69894;SDS011;57172;52.034;5.090;2022-07-01T01:55:13;31.17;;;16.30;;
69894;SDS011;57172;52.034;5.090;2022-07-01T01:57:40;32.45;;;17.35;;
69894;SDS011;57172;52.034;5.090;2022-07-01T02:00:08;31.10;;;16.57;;
69894;SDS011;57172;52.034;5.090;2022-07-01T02:02:37;30.15;;;16.45;;
69894;SDS011;57172;52.034;5.090;2022-07-01T02:05:06;31.52;;;17.35;;
69894;SDS011;57172;52.034;5.090;2022-07-01T02:07:34;34.65;;;17.15;;
69894;SDS011;57172;52.034;5.090;2022-07-01T02:10:01;34.05;;;15.98;;
69894;SDS011;57172;52.034;5.090;2022-07-01T02:12:28;31.83;;;16.83;;
69894;SDS011;57172;52.034;5.090;2022-07-01T02:14:55;27.50;;;15.82;;
69894;SDS011;57172;52.034;5.090;2022-07-01T02:17:22;28.05;;;15.80;;
69894;SDS011;57172;52.034;5.090;2022-07-01T02:19:49;31.63;;;17.10;;
69894;SDS011;57172;52.034;5.090;2022-07-01T02:22:16;32.42;;;16.98;;
69894;SDS011;57172;52.034;5.090;2022-07-01T02:24:42;33.90;;;15.70;;
69894;SDS011;57172;52.034;5.090;2022-07-01T02:27:10;33.53;;;17.10;;
69894;SDS011;57172;52.034;5.090;2022-07-01T02:29:38;30.08;;;15.88;;
69894;SDS011;57172;52.034;5.090;2022-07-01T02:32:06;28.55;;;15.50;;
69894;SDS011;57172;52.034;5.090;2022-07-01T02:34:33;32.03;;;16.58;;
69894;SDS011;57172;52.034;5.090;2022-07-01T02:37:00;33.20;;;15.90;;
69894;SDS011;57172;52.034;5.090;2022-07-01T02:39:27;32.85;;;16.73;;
69894;SDS011;57172;52.034;5.090;2022-07-01T02:41:53;32.67;;;16.60;;
69894;SDS011;57172;52.034;5.090;2022-07-01T02:44:39;34.25;;;16.45;;
69894;SDS011;57172;52.034;5.090;2022-07-01T02:47:06;32.20;;;16.00;;
69894;SDS011;57172;52.034;5.090;2022-07-01T02:49:33;32.53;;;14.93;;
69894;SDS011;57172;52.034;5.090;2022-07-01T02:52:00;35.20;;;16.60;;
69894;SDS011;57172;52.034;5.090;2022-07-01T02:54:26;33.55;;;16.45;;
69894;SDS011;57172;52.034;5.090;2022-07-01T02:56:53;31.98;;;17.05;;
69894;SDS011;57172;52.034;5.090;2022-07-01T02:59:21;33.60;;;16.65;;
69894;SDS011;57172;52.034;5.090;2022-07-01T03:01:47;33.23;;;16.07;;
69894;SDS011;57172;52.034;5.090;2022-07-01T03:04:14;34.53;;;16.85;;
69894;SDS011;57172;52.034;5.090;2022-07-01T03:06:41;33.65;;;16.70;;
69894;SDS011;57172;52.034;5.090;2022-07-01T03:09:08;37.03;;;17.02;;
69894;SDS011;57172;52.034;5.090;2022-07-01T03:11:35;33.08;;;15.27;;
69894;SDS011;57172;52.034;5.090;2022-07-01T03:14:02;32.47;;;15.57;;
69894;SDS011;57172;52.034;5.090;2022-07-01T03:16:29;35.45;;;16.90;;
69894;SDS011;57172;52.034;5.090;2022-07-01T03:18:55;34.05;;;16.75;;
69894;SDS011;57172;52.034;5.090;2022-07-01T03:21:23;34.60;;;17.50;;
69894;SDS011;57172;52.034;5.090;2022-07-01T03:23:50;36.00;;;15.68;;
69894;SDS011;57172;52.034;5.090;2022-07-01T03:26:17;28.07;;;13.97;;
69894;SDS011;57172;52.034;5.090;2022-07-01T03:28:43;29.67;;;14.80;;
69894;SDS011;57172;52.034;5.090;2022-07-01T03:31:10;32.05;;;16.13;;
69894;SDS011;57172;52.034;5.090;2022-07-01T03:33:37;34.08;;;16.90;;
69894;SDS011;57172;52.034;5.090;2022-07-01T03:36:04;31.80;;;15.95;;
69894;SDS011;57172;52.034;5.090;2022-07-01T03:38:31;32.60;;;16.77;;
69894;SDS011;57172;52.034;5.090;2022-07-01T03:40:58;35.53;;;16.63;;
69894;SDS011;57172;52.034;5.090;2022-07-01T03:43:25;33.35;;;17.77;;
69894;SDS011;57172;52.034;5.090;2022-07-01T03:45:52;36.55;;;18.58;;
69894;SDS011;57172;52.034;5.090;2022-07-01T03:48:18;34.53;;;15.80;;
69894;SDS011;57172;52.034;5.090;2022-07-01T03:50:45;35.73;;;16.63;;
69894;SDS011;57172;52.034;5.090;2022-07-01T03:53:12;37.55;;;18.10;;
69894;SDS011;57172;52.034;5.090;2022-07-01T03:55:57;35.63;;;17.20;;
69894;SDS011;57172;52.034;5.090;2022-07-01T03:58:24;40.22;;;17.30;;
69894;SDS011;57172;52.034;5.090;2022-07-01T04:00:51;37.60;;;16.38;;
69894;SDS011;57172;52.034;5.090;2022-07-01T04:03:18;38.10;;;18.47;;
69894;SDS011;57172;52.034;5.090;2022-07-01T04:05:45;32.72;;;16.73;;
69894;SDS011;57172;52.034;5.090;2022-07-01T04:08:12;34.65;;;17.10;;
69894;SDS011;57172;52.034;5.090;2022-07-01T04:10:40;35.47;;;17.27;;
69894;SDS011;57172;52.034;5.090;2022-07-01T04:13:08;33.55;;;17.30;;
69894;SDS011;57172;52.034;5.090;2022-07-01T04:15:55;39.37;;;17.20;;
69894;SDS011;57172;52.034;5.090;2022-07-01T04:18:22;34.35;;;17.63;;
69894;SDS011;57172;52.034;5.090;2022-07-01T04:20:49;36.45;;;17.50;;
69894;SDS011;57172;52.034;5.090;2022-07-01T04:23:34;23.92;;;12.82;;
69894;SDS011;57172;52.034;5.090;2022-07-01T04:26:02;32.45;;;17.17;;
69894;SDS011;57172;52.034;5.090;2022-07-01T04:28:49;31.70;;;16.70;;
69894;SDS011;57172;52.034;5.090;2022-07-01T04:31:19;31.92;;;15.30;;
69894;SDS011;57172;52.034;5.090;2022-07-01T04:33:47;31.92;;;16.75;;
69894;SDS011;57172;52.034;5.090;2022-07-01T04:36:15;29.02;;;16.30;;
69894;SDS011;57172;52.034;5.090;2022-07-01T04:38:42;28.60;;;15.60;;
69894;SDS011;57172;52.034;5.090;2022-07-01T04:41:09;32.10;;;16.20;;
69894;SDS011;57172;52.034;5.090;2022-07-01T04:43:55;29.23;;;15.20;;
69894;SDS011;57172;52.034;5.090;2022-07-01T04:46:22;28.80;;;15.50;;
69894;SDS011;57172;52.034;5.090;2022-07-01T04:48:49;28.20;;;15.07;;
69894;SDS011;57172;52.034;5.090;2022-07-01T04:51:15;26.80;;;14.70;;
69894;SDS011;57172;52.034;5.090;2022-07-01T04:53:42;27.10;;;13.13;;
69894;SDS011;57172;52.034;5.090;2022-07-01T04:56:09;26.08;;;14.98;;
69894;SDS011;57172;52.034;5.090;2022-07-01T04:58:36;24.25;;;13.07;;
69894;SDS011;57172;52.034;5.090;2022-07-01T05:01:03;24.83;;;13.35;;
69894;SDS011;57172;52.034;5.090;2022-07-01T05:03:29;24.23;;;12.65;;
69894;SDS011;57172;52.034;5.090;2022-07-01T05:05:56;26.50;;;13.43;;
69894;SDS011;57172;52.034;5.090;2022-07-01T05:08:23;23.23;;;13.43;;
69894;SDS011;57172;52.034;5.090;2022-07-01T05:10:50;22.25;;;11.20;;
69894;SDS011;57172;52.034;5.090;2022-07-01T05:13:17;24.75;;;10.90;;
69894;SDS011;57172;52.034;5.090;2022-07-01T05:15:44;20.40;;;10.57;;
69894;SDS011;57172;52.034;5.090;2022-07-01T05:18:10;16.63;;;8.63;;
69894;SDS011;57172;52.034;5.090;2022-07-01T05:20:56;18.35;;;9.95;;
69894;SDS011;57172;52.034;5.090;2022-07-01T05:23:41;20.20;;;10.15;;
69894;SDS011;57172;52.034;5.090;2022-07-01T05:26:08;19.48;;;10.10;;
69894;SDS011;57172;52.034;5.090;2022-07-01T05:28:35;17.13;;;10.50;;
69894;SDS011;57172;52.034;5.090;2022-07-01T05:31:02;20.37;;;10.30;;
69894;SDS011;57172;52.034;5.090;2022-07-01T05:33:28;16.35;;;9.48;;
69894;SDS011;57172;52.034;5.090;2022-07-01T05:35:55;16.95;;;8.88;;
69894;SDS011;57172;52.034;5.090;2022-07-01T05:38:22;19.17;;;9.80;;
69894;SDS011;57172;52.034;5.090;2022-07-01T05:40:49;19.25;;;10.40;;
69894;SDS011;57172;52.034;5.090;2022-07-01T05:43:16;24.00;;;12.77;;
69894;SDS011;57172;52.034;5.090;2022-07-01T05:45:42;30.85;;;15.98;;
69894;SDS011;57172;52.034;5.090;2022-07-01T05:48:09;21.13;;;13.00;;
69894;SDS011;57172;52.034;5.090;2022-07-01T05:50:36;25.92;;;13.52;;
69894;SDS011;57172;52.034;5.090;2022-07-01T05:53:03;26.17;;;13.50;;
69894;SDS011;57172;52.034;5.090;2022-07-01T05:55:30;21.83;;;12.43;;
69894;SDS011;57172;52.034;5.090;2022-07-01T05:57:57;21.88;;;11.10;;
69894;SDS011;57172;52.034;5.090;2022-07-01T06:00:23;23.10;;;10.95;;
69894;SDS011;57172;52.034;5.090;2022-07-01T06:02:50;17.48;;;10.00;;
69894;SDS011;57172;52.034;5.090;2022-07-01T06:05:20;17.95;;;9.57;;
69894;SDS011;57172;52.034;5.090;2022-07-01T06:07:47;14.10;;;9.10;;
69894;SDS011;57172;52.034;5.090;2022-07-01T06:10:14;13.68;;;7.75;;
69894;SDS011;57172;52.034;5.090;2022-07-01T06:12:41;16.33;;;8.10;;
69894;SDS011;57172;52.034;5.090;2022-07-01T06:15:08;16.50;;;8.27;;
69894;SDS011;57172;52.034;5.090;2022-07-01T06:17:37;15.20;;;8.40;;
69894;SDS011;57172;52.034;5.090;2022-07-01T06:20:06;19.00;;;8.30;;
69894;SDS011;57172;52.034;5.090;2022-07-01T06:22:33;20.13;;;8.10;;
69894;SDS011;57172;52.034;5.090;2022-07-01T06:25:01;15.93;;;8.18;;
69894;SDS011;57172;52.034;5.090;2022-07-01T06:27:29;16.92;;;7.15;;
69894;SDS011;57172;52.034;5.090;2022-07-01T06:29:56;20.63;;;8.02;;
69894;SDS011;57172;52.034;5.090;2022-07-01T06:32:22;14.57;;;6.83;;
69894;SDS011;57172;52.034;5.090;2022-07-01T06:34:49;14.23;;;6.50;;
69894;SDS011;57172;52.034;5.090;2022-07-01T06:37:18;12.95;;;6.00;;
69894;SDS011;57172;52.034;5.090;2022-07-01T06:39:47;12.85;;;6.47;;
69894;SDS011;57172;52.034;5.090;2022-07-01T06:42:14;16.17;;;6.72;;
69894;SDS011;57172;52.034;5.090;2022-07-01T06:44:42;11.10;;;5.73;;
69894;SDS011;57172;52.034;5.090;2022-07-01T06:47:09;13.05;;;6.88;;
69894;SDS011;57172;52.034;5.090;2022-07-01T06:49:36;11.50;;;6.43;;
69894;SDS011;57172;52.034;5.090;2022-07-01T06:52:04;16.27;;;6.72;;
69894;SDS011;57172;52.034;5.090;2022-07-01T06:54:31;14.35;;;7.00;;
69894;SDS011;57172;52.034;5.090;2022-07-01T06:56:58;14.47;;;7.47;;
69894;SDS011;57172;52.034;5.090;2022-07-01T06:59:25;9.80;;;5.38;;
69894;SDS011;57172;52.034;5.090;2022-07-01T07:01:52;12.80;;;6.35;;
69894;SDS011;57172;52.034;5.090;2022-07-01T07:04:19;14.32;;;7.03;;
69894;SDS011;57172;52.034;5.090;2022-07-01T07:07:06;12.82;;;6.60;;
69894;SDS011;57172;52.034;5.090;2022-07-01T07:09:33;11.30;;;6.40;;
69894;SDS011;57172;52.034;5.090;2022-07-01T07:12:00;11.73;;;6.03;;
69894;SDS011;57172;52.034;5.090;2022-07-01T07:14:27;13.40;;;6.53;;
69894;SDS011;57172;52.034;5.090;2022-07-01T07:16:54;15.23;;;6.25;;
69894;SDS011;57172;52.034;5.090;2022-07-01T07:19:21;13.00;;;6.10;;
69894;SDS011;57172;52.034;5.090;2022-07-01T07:21:48;11.87;;;5.93;;
69894;SDS011;57172;52.034;5.090;2022-07-01T07:24:15;13.10;;;6.18;;
69894;SDS011;57172;52.034;5.090;2022-07-01T07:26:41;10.98;;;5.30;;
69894;SDS011;57172;52.034;5.090;2022-07-01T07:29:08;11.55;;;4.65;;
69894;SDS011;57172;52.034;5.090;2022-07-01T07:31:35;13.13;;;5.30;;
69894;SDS011;57172;52.034;5.090;2022-07-01T07:34:02;9.13;;;4.67;;
69894;SDS011;57172;52.034;5.090;2022-07-01T07:36:29;12.50;;;4.97;;
69894;SDS011;57172;52.034;5.090;2022-07-01T07:38:56;11.65;;;5.35;;
69894;SDS011;57172;52.034;5.090;2022-07-01T07:41:23;13.57;;;4.78;;
69894;SDS011;57172;52.034;5.090;2022-07-01T07:43:50;11.13;;;5.15;;
69894;SDS011;57172;52.034;5.090;2022-07-01T07:46:17;14.03;;;5.43;;
69894;SDS011;57172;52.034;5.090;2022-07-01T07:48:44;12.52;;;5.35;;
69894;SDS011;57172;52.034;5.090;2022-07-01T07:51:11;10.15;;;4.30;;
69894;SDS011;57172;52.034;5.090;2022-07-01T07:53:42;9.45;;;3.90;;
69894;SDS011;57172;52.034;5.090;2022-07-01T07:56:08;12.10;;;3.85;;
69894;SDS011;57172;52.034;5.090;2022-07-01T07:58:35;11.43;;;4.07;;
69894;SDS011;57172;52.034;5.090;2022-07-01T08:01:02;11.98;;;4.18;;
69894;SDS011;57172;52.034;5.090;2022-07-01T08:03:30;13.00;;;3.95;;
69894;SDS011;57172;52.034;5.090;2022-07-01T08:05:58;13.40;;;3.95;;
69894;SDS011;57172;52.034;5.090;2022-07-01T08:08:25;8.70;;;3.40;;
69894;SDS011;57172;52.034;5.090;2022-07-01T08:10:53;6.57;;;3.10;;
69894;SDS011;57172;52.034;5.090;2022-07-01T08:13:20;9.05;;;2.88;;
69894;SDS011;57172;52.034;5.090;2022-07-01T08:15:47;9.80;;;3.20;;
69894;SDS011;57172;52.034;5.090;2022-07-01T08:18:14;9.82;;;2.85;;
69894;SDS011;57172;52.034;5.090;2022-07-01T08:20:41;9.40;;;2.60;;
69894;SDS011;57172;52.034;5.090;2022-07-01T08:23:08;6.30;;;2.87;;
69894;SDS011;57172;52.034;5.090;2022-07-01T08:25:34;7.88;;;2.75;;
69894;SDS011;57172;52.034;5.090;2022-07-01T08:28:02;5.32;;;2.40;;
69894;SDS011;57172;52.034;5.090;2022-07-01T08:30:29;5.97;;;2.38;;
69894;SDS011;57172;52.034;5.090;2022-07-01T08:32:56;7.35;;;2.55;;
69894;SDS011;57172;52.034;5.090;2022-07-01T08:35:23;8.27;;;2.10;;
69894;SDS011;57172;52.034;5.090;2022-07-01T08:37:50;5.57;;;2.20;;
69894;SDS011;57172;52.034;5.090;2022-07-01T08:40:17;7.95;;;2.45;;
69894;SDS011;57172;52.034;5.090;2022-07-01T08:42:44;7.63;;;2.30;;
69894;SDS011;57172;52.034;5.090;2022-07-01T08:45:11;9.00;;;2.58;;
69894;SDS011;57172;52.034;5.090;2022-07-01T08:47:51;8.27;;;2.33;;
69894;SDS011;57172;52.034;5.090;2022-07-01T08:50:21;5.57;;;1.83;;
69894;SDS011;57172;52.034;5.090;2022-07-01T08:52:49;7.45;;;2.20;;
69894;SDS011;57172;52.034;5.090;2022-07-01T08:55:16;7.90;;;1.90;;
69894;SDS011;57172;52.034;5.090;2022-07-01T08:57:43;6.32;;;2.08;;
69894;SDS011;57172;52.034;5.090;2022-07-01T09:00:10;3.87;;;1.97;;
69894;SDS011;57172;52.034;5.090;2022-07-01T09:02:59;5.38;;;2.28;;
69894;SDS011;57172;52.034;5.090;2022-07-01T09:05:26;9.52;;;2.10;;
69894;SDS011;57172;52.034;5.090;2022-07-01T09:07:56;4.45;;;1.92;;
69894;SDS011;57172;52.034;5.090;2022-07-01T09:10:25;6.35;;;1.80;;
69894;SDS011;57172;52.034;5.090;2022-07-01T09:12:53;7.07;;;1.90;;
69894;SDS011;57172;52.034;5.090;2022-07-01T09:17:47;5.78;;;1.70;;
69894;SDS011;57172;52.034;5.090;2022-07-01T09:20:24;6.60;;;1.90;;
69894;SDS011;57172;52.034;5.090;2022-07-01T09:23:06;5.90;;;1.80;;
69894;SDS011;57172;52.034;5.090;2022-07-01T09:25:48;7.20;;;1.60;;
69894;SDS011;57172;52.034;5.090;2022-07-01T09:28:22;4.90;;;1.70;;
69894;SDS011;57172;52.034;5.090;2022-07-01T09:30:57;5.78;;;1.70;;
69894;SDS011;57172;52.034;5.090;2022-07-01T09:33:25;5.65;;;1.55;;
69894;SDS011;57172;52.034;5.090;2022-07-01T09:35:54;5.75;;;1.45;;
69894;SDS011;57172;52.034;5.090;2022-07-01T09:38:23;3.03;;;1.30;;
69894;SDS011;57172;52.034;5.090;2022-07-01T09:41:02;5.95;;;1.60;;
69894;SDS011;57172;52.034;5.090;2022-07-01T09:43:34;3.50;;;1.30;;
69894;SDS011;57172;52.034;5.090;2022-07-01T09:51:03;2.87;;;1.20;;
69894;SDS011;57172;52.034;5.090;2022-07-01T09:53:40;7.10;;;1.40;;
69894;SDS011;57172;52.034;5.090;2022-07-01T09:56:08;3.70;;;1.38;;
69894;SDS011;57172;52.034;5.090;2022-07-01T09:58:34;3.55;;;1.50;;
69894;SDS011;57172;52.034;5.090;2022-07-01T10:01:05;3.80;;;1.27;;
69894;SDS011;57172;52.034;5.090;2022-07-01T10:03:35;3.80;;;1.40;;
69894;SDS011;57172;52.034;5.090;2022-07-01T10:14:13;4.35;;;1.63;;
69894;SDS011;57172;52.034;5.090;2022-07-01T10:16:41;5.10;;;1.30;;
69894;SDS011;57172;52.034;5.090;2022-07-01T10:21:50;5.93;;;1.60;;
69894;SDS011;57172;52.034;5.090;2022-07-01T10:24:23;2.42;;;1.15;;
69894;SDS011;57172;52.034;5.090;2022-07-01T10:26:51;4.07;;;1.35;;
69894;SDS011;57172;52.034;5.090;2022-07-01T10:29:35;5.23;;;1.30;;
69894;SDS011;57172;52.034;5.090;2022-07-01T10:32:09;3.00;;;1.20;;
69894;SDS011;57172;52.034;5.090;2022-07-01T10:35:15;4.80;;;1.40;;
69894;SDS011;57172;52.034;5.090;2022-07-01T10:37:58;4.05;;;1.30;;
69894;SDS011;57172;52.034;5.090;2022-07-01T10:40:45;3.83;;;1.25;;
69894;SDS011;57172;52.034;5.090;2022-07-01T10:43:32;3.27;;;1.50;;
69894;SDS011;57172;52.034;5.090;2022-07-01T10:46:00;4.20;;;1.35;;
69894;SDS011;57172;52.034;5.090;2022-07-01T10:48:30;7.60;;;1.50;;
69894;SDS011;57172;52.034;5.090;2022-07-01T10:50:58;5.78;;;1.60;;
69894;SDS011;57172;52.034;5.090;2022-07-01T10:53:30;5.10;;;1.20;;
69894;SDS011;57172;52.034;5.090;2022-07-01T10:56:18;3.07;;;1.40;;
69894;SDS011;57172;52.034;5.090;2022-07-01T10:58:45;3.60;;;1.30;;
69894;SDS011;57172;52.034;5.090;2022-07-01T11:01:11;4.65;;;1.10;;
69894;SDS011;57172;52.034;5.090;2022-07-01T11:03:38;3.75;;;1.33;;
69894;SDS011;57172;52.034;5.090;2022-07-01T11:06:06;4.07;;;1.25;;
69894;SDS011;57172;52.034;5.090;2022-07-01T11:08:34;3.23;;;1.30;;
69894;SDS011;57172;52.034;5.090;2022-07-01T11:11:01;4.65;;;1.35;;
69894;SDS011;57172;52.034;5.090;2022-07-01T11:13:31;5.40;;;1.30;;
69894;SDS011;57172;52.034;5.090;2022-07-01T11:15:59;4.50;;;1.30;;
69894;SDS011;57172;52.034;5.090;2022-07-01T11:18:26;6.80;;;1.30;;
69894;SDS011;57172;52.034;5.090;2022-07-01T11:21:02;4.27;;;1.50;;
69894;SDS011;57172;52.034;5.090;2022-07-01T11:23:33;3.40;;;1.30;;
69894;SDS011;57172;52.034;5.090;2022-07-01T11:26:06;5.05;;;1.42;;
69894;SDS011;57172;52.034;5.090;2022-07-01T11:28:37;4.55;;;1.38;;
69894;SDS011;57172;52.034;5.090;2022-07-01T11:31:06;4.82;;;1.40;;
69894;SDS011;57172;52.034;5.090;2022-07-01T11:33:33;5.07;;;1.50;;
69894;SDS011;57172;52.034;5.090;2022-07-01T11:35:59;5.50;;;1.40;;
69894;SDS011;57172;52.034;5.090;2022-07-01T11:38:45;3.75;;;1.30;;
69894;SDS011;57172;52.034;5.090;2022-07-01T11:41:30;2.65;;;1.17;;
69894;SDS011;57172;52.034;5.090;2022-07-01T11:43:57;3.50;;;1.40;;
69894;SDS011;57172;52.034;5.090;2022-07-01T11:46:24;2.87;;;1.20;;
69894;SDS011;57172;52.034;5.090;2022-07-01T11:48:52;3.47;;;1.40;;
69894;SDS011;57172;52.034;5.090;2022-07-01T11:51:23;4.35;;;1.40;;
69894;SDS011;57172;52.034;5.090;2022-07-01T11:53:53;3.72;;;1.20;;
69894;SDS011;57172;52.034;5.090;2022-07-01T11:56:34;4.70;;;1.33;;
69894;SDS011;57172;52.034;5.090;2022-07-01T11:59:05;4.03;;;1.40;;
69894;SDS011;57172;52.034;5.090;2022-07-01T12:01:33;7.20;;;1.50;;
69894;SDS011;57172;52.034;5.090;2022-07-01T12:04:03;3.90;;;1.35;;
69894;SDS011;57172;52.034;5.090;2022-07-01T12:06:34;3.90;;;1.33;;
69894;SDS011;57172;52.034;5.090;2022-07-01T12:09:03;4.18;;;1.40;;
69894;SDS011;57172;52.034;5.090;2022-07-01T12:11:30;3.07;;;1.40;;
69894;SDS011;57172;52.034;5.090;2022-07-01T12:14:04;5.50;;;1.90;;
69894;SDS011;57172;52.034;5.090;2022-07-01T12:16:40;5.13;;;1.67;;
69894;SDS011;57172;52.034;5.090;2022-07-01T12:19:08;3.50;;;1.40;;
69894;SDS011;57172;52.034;5.090;2022-07-01T12:24:16;4.27;;;1.50;;
69894;SDS011;57172;52.034;5.090;2022-07-01T12:26:52;5.15;;;1.50;;
69894;SDS011;57172;52.034;5.090;2022-07-01T12:29:25;5.45;;;1.38;;
69894;SDS011;57172;52.034;5.090;2022-07-01T12:31:58;6.57;;;1.70;;
69894;SDS011;57172;52.034;5.090;2022-07-01T12:34:42;5.43;;;1.58;;
69894;SDS011;57172;52.034;5.090;2022-07-01T12:37:17;4.57;;;1.60;;
69894;SDS011;57172;52.034;5.090;2022-07-01T12:39:46;4.00;;;1.60;;
69894;SDS011;57172;52.034;5.090;2022-07-01T12:42:21;3.03;;;1.30;;
69894;SDS011;57172;52.034;5.090;2022-07-01T12:44:55;6.95;;;1.50;;
69894;SDS011;57172;52.034;5.090;2022-07-01T12:50:09;5.87;;;1.60;;
69894;SDS011;57172;52.034;5.090;2022-07-01T12:55:35;4.63;;;1.77;;
69894;SDS011;57172;52.034;5.090;2022-07-01T12:58:07;7.47;;;1.73;;
69894;SDS011;57172;52.034;5.090;2022-07-01T13:00:43;4.88;;;1.52;;
69894;SDS011;57172;52.034;5.090;2022-07-01T13:03:12;6.17;;;2.03;;
69894;SDS011;57172;52.034;5.090;2022-07-01T13:05:39;6.05;;;1.75;;
69894;SDS011;57172;52.034;5.090;2022-07-01T13:08:07;6.82;;;1.80;;
69894;SDS011;57172;52.034;5.090;2022-07-01T13:10:34;5.57;;;1.85;;
69894;SDS011;57172;52.034;5.090;2022-07-01T13:13:01;4.07;;;1.60;;
69894;SDS011;57172;52.034;5.090;2022-07-01T13:15:29;4.40;;;1.67;;
69894;SDS011;57172;52.034;5.090;2022-07-01T13:17:56;7.75;;;1.98;;
69894;SDS011;57172;52.034;5.090;2022-07-01T13:20:23;4.55;;;1.80;;
69894;SDS011;57172;52.034;5.090;2022-07-01T13:22:50;4.03;;;1.50;;
69894;SDS011;57172;52.034;5.090;2022-07-01T13:25:17;4.07;;;1.92;;
69894;SDS011;57172;52.034;5.090;2022-07-01T13:27:44;5.30;;;2.00;;
69894;SDS011;57172;52.034;5.090;2022-07-01T13:30:11;2.80;;;1.73;;
69894;SDS011;57172;52.034;5.090;2022-07-01T13:32:39;6.55;;;2.53;;
69894;SDS011;57172;52.034;5.090;2022-07-01T13:35:07;4.85;;;2.45;;
69894;SDS011;57172;52.034;5.090;2022-07-01T13:37:35;4.60;;;1.70;;
69894;SDS011;57172;52.034;5.090;2022-07-01T13:40:02;5.23;;;1.70;;
69894;SDS011;57172;52.034;5.090;2022-07-01T13:42:29;3.90;;;1.67;;
69894;SDS011;57172;52.034;5.090;2022-07-01T13:44:56;5.75;;;1.83;;
69894;SDS011;57172;52.034;5.090;2022-07-01T13:47:23;4.60;;;1.77;;
69894;SDS011;57172;52.034;5.090;2022-07-01T13:49:50;4.88;;;1.80;;
69894;SDS011;57172;52.034;5.090;2022-07-01T13:52:17;5.30;;;2.10;;
69894;SDS011;57172;52.034;5.090;2022-07-01T13:54:44;5.18;;;1.63;;
69894;SDS011;57172;52.034;5.090;2022-07-01T13:57:11;7.20;;;1.90;;
69894;SDS011;57172;52.034;5.090;2022-07-01T13:59:38;4.80;;;1.80;;
69894;SDS011;57172;52.034;5.090;2022-07-01T14:02:10;4.93;;;1.88;;
69894;SDS011;57172;52.034;5.090;2022-07-01T14:04:37;5.93;;;1.60;;
69894;SDS011;57172;52.034;5.090;2022-07-01T14:07:04;3.97;;;1.50;;
69894;SDS011;57172;52.034;5.090;2022-07-01T14:09:31;4.60;;;1.55;;
69894;SDS011;57172;52.034;5.090;2022-07-01T14:12:00;6.50;;;1.80;;
69894;SDS011;57172;52.034;5.090;2022-07-01T14:14:29;4.07;;;1.80;;
69894;SDS011;57172;52.034;5.090;2022-07-01T14:16:56;4.40;;;1.70;;
69894;SDS011;57172;52.034;5.090;2022-07-01T14:19:23;4.18;;;1.70;;
69894;SDS011;57172;52.034;5.090;2022-07-01T14:21:50;6.30;;;1.70;;
69894;SDS011;57172;52.034;5.090;2022-07-01T14:24:17;3.60;;;1.60;;
69894;SDS011;57172;52.034;5.090;2022-07-01T14:26:45;4.53;;;1.98;;
69894;SDS011;57172;52.034;5.090;2022-07-01T14:29:12;6.67;;;1.73;;
69894;SDS011;57172;52.034;5.090;2022-07-01T14:31:39;4.88;;;1.80;;
69894;SDS011;57172;52.034;5.090;2022-07-01T14:34:05;3.92;;;1.38;;
69894;SDS011;57172;52.034;5.090;2022-07-01T14:36:32;4.57;;;1.75;;
69894;SDS011;57172;52.034;5.090;2022-07-01T14:38:59;3.70;;;1.50;;
69894;SDS011;57172;52.034;5.090;2022-07-01T14:41:26;4.47;;;1.50;;
69894;SDS011;57172;52.034;5.090;2022-07-01T14:43:53;4.18;;;1.70;;
69894;SDS011;57172;52.034;5.090;2022-07-01T14:46:20;4.22;;;1.88;;
69894;SDS011;57172;52.034;5.090;2022-07-01T14:48:47;3.80;;;1.73;;
69894;SDS011;57172;52.034;5.090;2022-07-01T14:51:13;3.00;;;1.70;;
69894;SDS011;57172;52.034;5.090;2022-07-01T14:53:41;3.57;;;1.80;;
69894;SDS011;57172;52.034;5.090;2022-07-01T14:56:10;6.53;;;1.70;;
69894;SDS011;57172;52.034;5.090;2022-07-01T14:58:37;3.13;;;1.63;;
69894;SDS011;57172;52.034;5.090;2022-07-01T15:01:08;8.88;;;1.65;;
69894;SDS011;57172;52.034;5.090;2022-07-01T15:03:36;3.08;;;1.50;;
69894;SDS011;57172;52.034;5.090;2022-07-01T15:06:04;3.07;;;1.40;;
69894;SDS011;57172;52.034;5.090;2022-07-01T15:08:31;3.53;;;1.40;;
69894;SDS011;57172;52.034;5.090;2022-07-01T15:10:57;3.33;;;1.73;;
69894;SDS011;57172;52.034;5.090;2022-07-01T15:13:29;3.58;;;1.60;;